sensor_id;sensor_type;location;lat;lon;timestamp;P1;durP1;ratioP1;P2;durP2;ratioP2
48516;SDS011;34310;51.904;4.256;2022-10-16T00:01:26;9.55;;;6.72;;
48516;SDS011;34310;51.904;4.256;2022-10-16T00:03:56;9.77;;;6.93;;
48516;SDS011;34310;51.904;4.256;2022-10-16T00:06:25;9.57;;;7.35;;
48516;SDS011;34310;51.904;4.256;2022-10-16T00:08:54;9.15;;;6.47;;
48516;SDS011;34310;51.904;4.256;2022-10-16T00:11:23;9.13;;;6.32;;
48516;SDS011;34310;51.904;4.256;2022-10-16T00:13:54;9.45;;;6.78;;
48516;SDS011;34310;51.904;4.256;2022-10-16T00:16:24;7.32;;;5.78;;
48516;SDS011;34310;51.904;4.256;2022-10-16T00:18:52;7.95;;;5.95;;
48516;SDS011;34310;51.904;4.256;2022-10-16T00:21:21;9.15;;;6.28;;
48516;SDS011;34310;51.904;4.256;2022-10-16T00:23:51;7.07;;;5.40;;
48516;SDS011;34310;51.904;4.256;2022-10-16T00:26:20;7.72;;;5.90;;
48516;SDS011;34310;51.904;4.256;2022-10-16T00:28:48;7.95;;;6.15;;
48516;SDS011;34310;51.904;4.256;2022-10-16T00:31:16;7.07;;;5.88;;
48516;SDS011;34310;51.904;4.256;2022-10-16T00:33:45;9.60;;;5.93;;
48516;SDS011;34310;51.904;4.256;2022-10-16T00:36:15;7.70;;;5.45;;
48516;SDS011;34310;51.904;4.256;2022-10-16T00:38:44;6.85;;;5.45;;
48516;SDS011;34310;51.904;4.256;2022-10-16T00:41:16;6.50;;;5.00;;
48516;SDS011;34310;51.904;4.256;2022-10-16T00:43:47;7.03;;;5.35;;
48516;SDS011;34310;51.904;4.256;2022-10-16T00:46:25;7.50;;;4.90;;
48516;SDS011;34310;51.904;4.256;2022-10-16T00:49:04;7.00;;;5.28;;
48516;SDS011;34310;51.904;4.256;2022-10-16T00:52:08;6.32;;;4.68;;
48516;SDS011;34310;51.904;4.256;2022-10-16T00:54:28;6.95;;;4.97;;
48516;SDS011;34310;51.904;4.256;2022-10-16T00:56:59;6.88;;;5.25;;
48516;SDS011;34310;51.904;4.256;2022-10-16T00:59:30;6.93;;;5.00;;
48516;SDS011;34310;51.904;4.256;2022-10-16T01:01:58;6.47;;;5.10;;
48516;SDS011;34310;51.904;4.256;2022-10-16T01:04:26;5.85;;;4.70;;
48516;SDS011;34310;51.904;4.256;2022-10-16T01:07:10;7.25;;;5.32;;
48516;SDS011;34310;51.904;4.256;2022-10-16T01:12:33;6.55;;;4.63;;
48516;SDS011;34310;51.904;4.256;2022-10-16T01:15:25;6.15;;;4.30;;
48516;SDS011;34310;51.904;4.256;2022-10-16T01:18:18;6.07;;;4.53;;
48516;SDS011;34310;51.904;4.256;2022-10-16T01:21:03;5.57;;;4.30;;
48516;SDS011;34310;51.904;4.256;2022-10-16T01:23:36;5.65;;;4.45;;
48516;SDS011;34310;51.904;4.256;2022-10-16T01:26:20;5.22;;;4.18;;
48516;SDS011;34310;51.904;4.256;2022-10-16T01:29:21;5.60;;;3.97;;
48516;SDS011;34310;51.904;4.256;2022-10-16T01:32:02;5.80;;;4.25;;
48516;SDS011;34310;51.904;4.256;2022-10-16T01:34:52;4.90;;;3.78;;
48516;SDS011;34310;51.904;4.256;2022-10-16T01:37:46;5.00;;;3.70;;
48516;SDS011;34310;51.904;4.256;2022-10-16T01:40:16;5.97;;;3.75;;
48516;SDS011;34310;51.904;4.256;2022-10-16T01:42:50;6.28;;;4.10;;
48516;SDS011;34310;51.904;4.256;2022-10-16T01:45:26;5.15;;;3.80;;
48516;SDS011;34310;51.904;4.256;2022-10-16T01:47:57;5.63;;;3.85;;
48516;SDS011;34310;51.904;4.256;2022-10-16T01:50:26;4.75;;;3.83;;
48516;SDS011;34310;51.904;4.256;2022-10-16T01:52:54;5.70;;;3.80;;
48516;SDS011;34310;51.904;4.256;2022-10-16T01:55:25;4.90;;;3.50;;
48516;SDS011;34310;51.904;4.256;2022-10-16T01:57:56;5.75;;;4.03;;
48516;SDS011;34310;51.904;4.256;2022-10-16T02:00:26;3.83;;;3.28;;
48516;SDS011;34310;51.904;4.256;2022-10-16T02:02:54;4.20;;;3.80;;
48516;SDS011;34310;51.904;4.256;2022-10-16T02:05:29;4.78;;;3.55;;
48516;SDS011;34310;51.904;4.256;2022-10-16T02:08:06;4.63;;;3.40;;
48516;SDS011;34310;51.904;4.256;2022-10-16T02:10:34;5.95;;;3.42;;
48516;SDS011;34310;51.904;4.256;2022-10-16T02:13:06;3.67;;;3.17;;
48516;SDS011;34310;51.904;4.256;2022-10-16T02:15:38;5.20;;;3.58;;
48516;SDS011;34310;51.904;4.256;2022-10-16T02:18:06;4.32;;;3.10;;
48516;SDS011;34310;51.904;4.256;2022-10-16T02:23:55;5.03;;;3.10;;
48516;SDS011;34310;51.904;4.256;2022-10-16T02:26:48;4.78;;;2.97;;
48516;SDS011;34310;51.904;4.256;2022-10-16T02:29:17;4.28;;;3.10;;
48516;SDS011;34310;51.904;4.256;2022-10-16T02:31:50;3.75;;;2.75;;
48516;SDS011;34310;51.904;4.256;2022-10-16T02:34:22;3.38;;;2.67;;
48516;SDS011;34310;51.904;4.256;2022-10-16T02:36:52;4.40;;;3.20;;
48516;SDS011;34310;51.904;4.256;2022-10-16T02:39:21;4.13;;;2.95;;
48516;SDS011;34310;51.904;4.256;2022-10-16T02:41:48;3.00;;;2.50;;
48516;SDS011;34310;51.904;4.256;2022-10-16T02:44:15;3.40;;;2.78;;
48516;SDS011;34310;51.904;4.256;2022-10-16T02:46:43;2.90;;;2.30;;
48516;SDS011;34310;51.904;4.256;2022-10-16T02:49:10;3.53;;;2.63;;
48516;SDS011;34310;51.904;4.256;2022-10-16T02:51:37;3.78;;;2.55;;
48516;SDS011;34310;51.904;4.256;2022-10-16T02:54:04;3.72;;;2.85;;
48516;SDS011;34310;51.904;4.256;2022-10-16T02:56:32;3.05;;;2.22;;
48516;SDS011;34310;51.904;4.256;2022-10-16T02:58:59;3.80;;;2.85;;
48516;SDS011;34310;51.904;4.256;2022-10-16T03:01:26;4.78;;;2.85;;
48516;SDS011;34310;51.904;4.256;2022-10-16T03:03:54;3.25;;;2.20;;
48516;SDS011;34310;51.904;4.256;2022-10-16T03:06:21;3.55;;;2.40;;
48516;SDS011;34310;51.904;4.256;2022-10-16T03:08:48;3.60;;;2.30;;
48516;SDS011;34310;51.904;4.256;2022-10-16T03:11:16;3.88;;;2.72;;
48516;SDS011;34310;51.904;4.256;2022-10-16T03:13:43;2.33;;;2.03;;
48516;SDS011;34310;51.904;4.256;2022-10-16T03:16:10;3.60;;;2.45;;
48516;SDS011;34310;51.904;4.256;2022-10-16T03:18:37;2.65;;;2.33;;
48516;SDS011;34310;51.904;4.256;2022-10-16T03:21:05;3.92;;;2.20;;
48516;SDS011;34310;51.904;4.256;2022-10-16T03:23:32;4.13;;;2.20;;
48516;SDS011;34310;51.904;4.256;2022-10-16T03:25:59;3.33;;;2.40;;
48516;SDS011;34310;51.904;4.256;2022-10-16T03:28:26;2.63;;;2.00;;
48516;SDS011;34310;51.904;4.256;2022-10-16T03:30:54;3.20;;;2.30;;
48516;SDS011;34310;51.904;4.256;2022-10-16T03:33:21;3.72;;;2.35;;
48516;SDS011;34310;51.904;4.256;2022-10-16T03:35:52;2.80;;;1.90;;
48516;SDS011;34310;51.904;4.256;2022-10-16T03:38:20;3.15;;;2.08;;
48516;SDS011;34310;51.904;4.256;2022-10-16T03:40:48;3.97;;;2.15;;
48516;SDS011;34310;51.904;4.256;2022-10-16T03:43:15;2.63;;;1.83;;
48516;SDS011;34310;51.904;4.256;2022-10-16T03:45:42;3.13;;;2.10;;
48516;SDS011;34310;51.904;4.256;2022-10-16T03:48:10;3.42;;;2.08;;
48516;SDS011;34310;51.904;4.256;2022-10-16T03:50:37;2.95;;;2.20;;
48516;SDS011;34310;51.904;4.256;2022-10-16T03:53:05;2.00;;;1.80;;
48516;SDS011;34310;51.904;4.256;2022-10-16T03:55:32;2.20;;;1.73;;
48516;SDS011;34310;51.904;4.256;2022-10-16T03:58:00;2.50;;;1.90;;
48516;SDS011;34310;51.904;4.256;2022-10-16T04:00:28;3.00;;;1.92;;
48516;SDS011;34310;51.904;4.256;2022-10-16T04:02:55;3.15;;;1.98;;
48516;SDS011;34310;51.904;4.256;2022-10-16T04:05:23;2.60;;;1.98;;
48516;SDS011;34310;51.904;4.256;2022-10-16T04:07:50;2.72;;;1.80;;
48516;SDS011;34310;51.904;4.256;2022-10-16T04:10:17;2.75;;;1.83;;
48516;SDS011;34310;51.904;4.256;2022-10-16T04:12:45;2.55;;;1.80;;
48516;SDS011;34310;51.904;4.256;2022-10-16T04:15:12;3.90;;;1.80;;
48516;SDS011;34310;51.904;4.256;2022-10-16T04:17:39;2.15;;;1.80;;
48516;SDS011;34310;51.904;4.256;2022-10-16T04:20:07;2.38;;;1.58;;
48516;SDS011;34310;51.904;4.256;2022-10-16T04:22:34;3.13;;;1.83;;
48516;SDS011;34310;51.904;4.256;2022-10-16T04:25:02;2.08;;;1.60;;
48516;SDS011;34310;51.904;4.256;2022-10-16T04:27:29;2.10;;;1.40;;
48516;SDS011;34310;51.904;4.256;2022-10-16T04:29:57;3.03;;;1.50;;
48516;SDS011;34310;51.904;4.256;2022-10-16T04:32:26;2.35;;;1.60;;
48516;SDS011;34310;51.904;4.256;2022-10-16T04:34:53;2.05;;;1.50;;
48516;SDS011;34310;51.904;4.256;2022-10-16T04:37:26;2.55;;;1.40;;
48516;SDS011;34310;51.904;4.256;2022-10-16T04:39:54;2.47;;;1.60;;
48516;SDS011;34310;51.904;4.256;2022-10-16T04:42:21;1.88;;;1.50;;
48516;SDS011;34310;51.904;4.256;2022-10-16T04:44:48;1.90;;;1.55;;
48516;SDS011;34310;51.904;4.256;2022-10-16T04:47:16;1.67;;;1.40;;
48516;SDS011;34310;51.904;4.256;2022-10-16T04:49:43;2.35;;;1.45;;
48516;SDS011;34310;51.904;4.256;2022-10-16T04:52:10;3.88;;;1.50;;
48516;SDS011;34310;51.904;4.256;2022-10-16T04:54:37;1.95;;;1.45;;
48516;SDS011;34310;51.904;4.256;2022-10-16T04:57:05;2.50;;;1.55;;
48516;SDS011;34310;51.904;4.256;2022-10-16T04:59:32;1.70;;;1.40;;
48516;SDS011;34310;51.904;4.256;2022-10-16T05:01:59;1.83;;;1.20;;
48516;SDS011;34310;51.904;4.256;2022-10-16T05:04:26;2.03;;;1.33;;
48516;SDS011;34310;51.904;4.256;2022-10-16T05:06:54;2.28;;;1.23;;
48516;SDS011;34310;51.904;4.256;2022-10-16T05:09:21;3.50;;;1.50;;
48516;SDS011;34310;51.904;4.256;2022-10-16T05:11:48;1.50;;;1.30;;
48516;SDS011;34310;51.904;4.256;2022-10-16T05:14:16;1.50;;;1.30;;
48516;SDS011;34310;51.904;4.256;2022-10-16T05:16:43;1.88;;;1.15;;
48516;SDS011;34310;51.904;4.256;2022-10-16T05:19:13;2.47;;;1.30;;
48516;SDS011;34310;51.904;4.256;2022-10-16T05:21:52;2.03;;;1.40;;
48516;SDS011;34310;51.904;4.256;2022-10-16T05:24:20;1.45;;;1.20;;
48516;SDS011;34310;51.904;4.256;2022-10-16T05:26:47;1.30;;;1.15;;
48516;SDS011;34310;51.904;4.256;2022-10-16T05:29:14;2.00;;;1.20;;
48516;SDS011;34310;51.904;4.256;2022-10-16T05:31:41;2.85;;;1.40;;
48516;SDS011;34310;51.904;4.256;2022-10-16T05:34:09;1.92;;;1.42;;
48516;SDS011;34310;51.904;4.256;2022-10-16T05:36:36;1.95;;;1.20;;
48516;SDS011;34310;51.904;4.256;2022-10-16T05:39:03;1.80;;;1.13;;
48516;SDS011;34310;51.904;4.256;2022-10-16T05:41:30;1.70;;;1.17;;
48516;SDS011;34310;51.904;4.256;2022-10-16T05:43:58;1.83;;;1.05;;
48516;SDS011;34310;51.904;4.256;2022-10-16T05:46:25;1.27;;;1.17;;
48516;SDS011;34310;51.904;4.256;2022-10-16T05:48:52;2.33;;;1.20;;
48516;SDS011;34310;51.904;4.256;2022-10-16T05:51:20;2.45;;;1.30;;
48516;SDS011;34310;51.904;4.256;2022-10-16T05:53:47;1.83;;;1.02;;
48516;SDS011;34310;51.904;4.256;2022-10-16T05:56:14;1.40;;;1.20;;
48516;SDS011;34310;51.904;4.256;2022-10-16T05:58:42;2.00;;;1.10;;
48516;SDS011;34310;51.904;4.256;2022-10-16T06:01:14;1.75;;;1.30;;
48516;SDS011;34310;51.904;4.256;2022-10-16T06:03:43;1.33;;;1.00;;
48516;SDS011;34310;51.904;4.256;2022-10-16T06:06:11;1.35;;;1.20;;
48516;SDS011;34310;51.904;4.256;2022-10-16T06:08:43;2.20;;;1.17;;
48516;SDS011;34310;51.904;4.256;2022-10-16T06:11:15;1.20;;;0.95;;
48516;SDS011;34310;51.904;4.256;2022-10-16T06:13:54;1.48;;;1.20;;
48516;SDS011;34310;51.904;4.256;2022-10-16T06:16:23;1.00;;;0.90;;
48516;SDS011;34310;51.904;4.256;2022-10-16T06:18:51;1.40;;;1.00;;
48516;SDS011;34310;51.904;4.256;2022-10-16T06:21:21;3.15;;;1.20;;
48516;SDS011;34310;51.904;4.256;2022-10-16T06:23:53;1.45;;;1.17;;
48516;SDS011;34310;51.904;4.256;2022-10-16T06:26:22;1.45;;;0.98;;
48516;SDS011;34310;51.904;4.256;2022-10-16T06:28:51;1.80;;;0.90;;
48516;SDS011;34310;51.904;4.256;2022-10-16T06:31:20;1.50;;;1.00;;
48516;SDS011;34310;51.904;4.256;2022-10-16T06:33:51;1.95;;;1.10;;
48516;SDS011;34310;51.904;4.256;2022-10-16T06:36:19;1.10;;;0.90;;
48516;SDS011;34310;51.904;4.256;2022-10-16T06:38:47;1.48;;;0.88;;
48516;SDS011;34310;51.904;4.256;2022-10-16T06:41:15;1.65;;;1.20;;
48516;SDS011;34310;51.904;4.256;2022-10-16T06:43:47;2.35;;;1.00;;
48516;SDS011;34310;51.904;4.256;2022-10-16T06:46:15;1.60;;;1.00;;
48516;SDS011;34310;51.904;4.256;2022-10-16T06:48:45;2.13;;;1.20;;
48516;SDS011;34310;51.904;4.256;2022-10-16T06:51:20;1.30;;;1.10;;
48516;SDS011;34310;51.904;4.256;2022-10-16T06:53:49;1.20;;;1.00;;
48516;SDS011;34310;51.904;4.256;2022-10-16T06:56:34;2.13;;;1.10;;
48516;SDS011;34310;51.904;4.256;2022-10-16T06:59:02;1.15;;;0.90;;
48516;SDS011;34310;51.904;4.256;2022-10-16T07:01:29;1.95;;;1.20;;
48516;SDS011;34310;51.904;4.256;2022-10-16T07:03:57;1.92;;;1.05;;
48516;SDS011;34310;51.904;4.256;2022-10-16T07:06:25;2.50;;;1.40;;
48516;SDS011;34310;51.904;4.256;2022-10-16T07:08:53;2.38;;;1.10;;
48516;SDS011;34310;51.904;4.256;2022-10-16T07:11:21;2.05;;;1.30;;
48516;SDS011;34310;51.904;4.256;2022-10-16T07:13:49;1.88;;;1.20;;
48516;SDS011;34310;51.904;4.256;2022-10-16T07:16:23;2.17;;;1.30;;
48516;SDS011;34310;51.904;4.256;2022-10-16T07:18:53;1.95;;;1.40;;
48516;SDS011;34310;51.904;4.256;2022-10-16T07:21:26;1.85;;;1.35;;
48516;SDS011;34310;51.904;4.256;2022-10-16T07:23:58;3.05;;;1.70;;
48516;SDS011;34310;51.904;4.256;2022-10-16T07:26:29;1.50;;;1.20;;
48516;SDS011;34310;51.904;4.256;2022-10-16T07:28:58;2.42;;;1.50;;
48516;SDS011;34310;51.904;4.256;2022-10-16T07:31:27;2.10;;;1.50;;
48516;SDS011;34310;51.904;4.256;2022-10-16T07:33:58;2.50;;;2.00;;
48516;SDS011;34310;51.904;4.256;2022-10-16T07:36:26;2.70;;;2.10;;
48516;SDS011;34310;51.904;4.256;2022-10-16T07:38:54;2.88;;;1.80;;
48516;SDS011;34310;51.904;4.256;2022-10-16T07:41:25;4.47;;;2.42;;
48516;SDS011;34310;51.904;4.256;2022-10-16T07:43:53;4.07;;;2.25;;
48516;SDS011;34310;51.904;4.256;2022-10-16T07:46:22;3.53;;;2.30;;
48516;SDS011;34310;51.904;4.256;2022-10-16T07:48:50;3.20;;;2.25;;
48516;SDS011;34310;51.904;4.256;2022-10-16T07:51:18;6.10;;;2.70;;
48516;SDS011;34310;51.904;4.256;2022-10-16T07:53:47;3.97;;;2.50;;
48516;SDS011;34310;51.904;4.256;2022-10-16T07:56:15;5.70;;;2.85;;
48516;SDS011;34310;51.904;4.256;2022-10-16T07:58:43;4.40;;;2.70;;
48516;SDS011;34310;51.904;4.256;2022-10-16T08:01:12;4.43;;;2.90;;
48516;SDS011;34310;51.904;4.256;2022-10-16T08:03:59;5.15;;;3.35;;
48516;SDS011;34310;51.904;4.256;2022-10-16T08:06:26;7.03;;;3.58;;
48516;SDS011;34310;51.904;4.256;2022-10-16T08:08:54;5.18;;;3.30;;
48516;SDS011;34310;51.904;4.256;2022-10-16T08:11:21;6.05;;;3.03;;
48516;SDS011;34310;51.904;4.256;2022-10-16T08:13:49;6.55;;;3.90;;
48516;SDS011;34310;51.904;4.256;2022-10-16T08:16:16;5.68;;;3.63;;
48516;SDS011;34310;51.904;4.256;2022-10-16T08:18:44;5.30;;;3.72;;
48516;SDS011;34310;51.904;4.256;2022-10-16T08:21:13;5.15;;;3.42;;
48516;SDS011;34310;51.904;4.256;2022-10-16T08:23:46;6.63;;;3.08;;
48516;SDS011;34310;51.904;4.256;2022-10-16T08:26:22;5.97;;;3.50;;
48516;SDS011;34310;51.904;4.256;2022-10-16T08:28:49;4.93;;;3.53;;
48516;SDS011;34310;51.904;4.256;2022-10-16T08:31:18;6.25;;;3.50;;
48516;SDS011;34310;51.904;4.256;2022-10-16T08:33:46;10.10;;;4.18;;
48516;SDS011;34310;51.904;4.256;2022-10-16T08:36:14;8.93;;;4.15;;
48516;SDS011;34310;51.904;4.256;2022-10-16T08:38:42;7.65;;;4.60;;
48516;SDS011;34310;51.904;4.256;2022-10-16T08:44:31;7.13;;;3.63;;
48516;SDS011;34310;51.904;4.256;2022-10-16T08:50:27;7.50;;;4.55;;
48516;SDS011;34310;51.904;4.256;2022-10-16T08:52:56;8.02;;;4.57;;
48516;SDS011;34310;51.904;4.256;2022-10-16T08:58:14;7.53;;;4.68;;
48516;SDS011;34310;51.904;4.256;2022-10-16T09:00:43;6.68;;;4.80;;
48516;SDS011;34310;51.904;4.256;2022-10-16T09:05:57;8.82;;;5.60;;
48516;SDS011;34310;51.904;4.256;2022-10-16T09:16:59;8.60;;;6.03;;
48516;SDS011;34310;51.904;4.256;2022-10-16T09:19:56;9.52;;;6.35;;
48516;SDS011;34310;51.904;4.256;2022-10-16T09:22:27;7.43;;;5.30;;
48516;SDS011;34310;51.904;4.256;2022-10-16T09:24:59;9.82;;;6.15;;
48516;SDS011;34310;51.904;4.256;2022-10-16T09:27:36;12.25;;;6.55;;
48516;SDS011;34310;51.904;4.256;2022-10-16T09:30:14;8.18;;;5.88;;
48516;SDS011;34310;51.904;4.256;2022-10-16T09:32:44;9.90;;;6.63;;
48516;SDS011;34310;51.904;4.256;2022-10-16T09:35:16;9.25;;;6.38;;
48516;SDS011;34310;51.904;4.256;2022-10-16T09:37:50;8.63;;;6.38;;
48516;SDS011;34310;51.904;4.256;2022-10-16T09:40:24;8.35;;;6.07;;
48516;SDS011;34310;51.904;4.256;2022-10-16T09:42:54;8.55;;;6.53;;
48516;SDS011;34310;51.904;4.256;2022-10-16T09:45:27;10.32;;;6.97;;
48516;SDS011;34310;51.904;4.256;2022-10-16T09:47:55;10.63;;;7.40;;
48516;SDS011;34310;51.904;4.256;2022-10-16T09:50:26;11.70;;;7.20;;
48516;SDS011;34310;51.904;4.256;2022-10-16T09:53:04;9.85;;;6.80;;
48516;SDS011;34310;51.904;4.256;2022-10-16T09:55:48;11.05;;;7.53;;
48516;SDS011;34310;51.904;4.256;2022-10-16T09:58:22;11.65;;;7.45;;
48516;SDS011;34310;51.904;4.256;2022-10-16T10:00:51;11.85;;;7.95;;
48516;SDS011;34310;51.904;4.256;2022-10-16T10:03:55;11.15;;;7.10;;
48516;SDS011;34310;51.904;4.256;2022-10-16T10:09:21;11.55;;;7.20;;
48516;SDS011;34310;51.904;4.256;2022-10-16T10:11:57;11.85;;;8.48;;
48516;SDS011;34310;51.904;4.256;2022-10-16T10:14:34;10.90;;;8.32;;
48516;SDS011;34310;51.904;4.256;2022-10-16T10:17:16;12.52;;;9.05;;
48516;SDS011;34310;51.904;4.256;2022-10-16T10:19:51;13.35;;;9.20;;
48516;SDS011;34310;51.904;4.256;2022-10-16T10:25:00;12.18;;;8.52;;
48516;SDS011;34310;51.904;4.256;2022-10-16T10:33:54;10.77;;;8.45;;
48516;SDS011;34310;51.904;4.256;2022-10-16T10:49:42;12.32;;;8.98;;
48516;SDS011;34310;51.904;4.256;2022-10-16T10:52:29;13.07;;;9.07;;
48516;SDS011;34310;51.904;4.256;2022-10-16T10:55:39;12.50;;;8.82;;
48516;SDS011;34310;51.904;4.256;2022-10-16T11:01:39;13.75;;;9.45;;
48516;SDS011;34310;51.904;4.256;2022-10-16T11:07:14;14.18;;;9.60;;
48516;SDS011;34310;51.904;4.256;2022-10-16T11:09:51;13.68;;;9.48;;
48516;SDS011;34310;51.904;4.256;2022-10-16T11:12:29;13.30;;;9.48;;
48516;SDS011;34310;51.904;4.256;2022-10-16T11:17:45;13.38;;;9.40;;
48516;SDS011;34310;51.904;4.256;2022-10-16T11:25:33;13.38;;;9.18;;
48516;SDS011;34310;51.904;4.256;2022-10-16T11:28:02;13.25;;;8.88;;
48516;SDS011;34310;51.904;4.256;2022-10-16T11:30:34;13.25;;;9.60;;
48516;SDS011;34310;51.904;4.256;2022-10-16T11:36:20;14.32;;;8.77;;
48516;SDS011;34310;51.904;4.256;2022-10-16T11:50:42;12.32;;;7.95;;
48516;SDS011;34310;51.904;4.256;2022-10-16T11:56:32;11.48;;;8.48;;
48516;SDS011;34310;51.904;4.256;2022-10-16T12:00:08;12.50;;;8.50;;
48516;SDS011;34310;51.904;4.256;2022-10-16T12:05:06;11.80;;;8.50;;
48516;SDS011;34310;51.904;4.256;2022-10-16T12:07:38;11.95;;;8.43;;
48516;SDS011;34310;51.904;4.256;2022-10-16T12:10:23;12.32;;;8.63;;
48516;SDS011;34310;51.904;4.256;2022-10-16T12:12:53;13.05;;;8.50;;
48516;SDS011;34310;51.904;4.256;2022-10-16T12:15:27;12.38;;;9.10;;
48516;SDS011;34310;51.904;4.256;2022-10-16T12:18:22;11.35;;;8.02;;
48516;SDS011;34310;51.904;4.256;2022-10-16T12:20:55;10.60;;;8.13;;
48516;SDS011;34310;51.904;4.256;2022-10-16T12:23:52;12.90;;;8.35;;
48516;SDS011;34310;51.904;4.256;2022-10-16T12:26:29;11.77;;;8.88;;
48516;SDS011;34310;51.904;4.256;2022-10-16T12:29:23;12.18;;;9.15;;
48516;SDS011;34310;51.904;4.256;2022-10-16T12:31:58;12.48;;;8.75;;
48516;SDS011;34310;51.904;4.256;2022-10-16T12:37:29;13.57;;;9.15;;
48516;SDS011;34310;51.904;4.256;2022-10-16T12:40:12;15.50;;;8.25;;
48516;SDS011;34310;51.904;4.256;2022-10-16T12:42:42;15.43;;;8.15;;
48516;SDS011;34310;51.904;4.256;2022-10-16T12:45:23;12.25;;;8.32;;
48516;SDS011;34310;51.904;4.256;2022-10-16T12:47:51;17.42;;;9.30;;
48516;SDS011;34310;51.904;4.256;2022-10-16T12:50:36;15.40;;;8.65;;
48516;SDS011;34310;51.904;4.256;2022-10-16T12:53:26;15.80;;;8.65;;
48516;SDS011;34310;51.904;4.256;2022-10-16T12:56:03;17.58;;;9.27;;
48516;SDS011;34310;51.904;4.256;2022-10-16T13:02:14;15.35;;;9.68;;
48516;SDS011;34310;51.904;4.256;2022-10-16T13:04:25;19.17;;;9.40;;
48516;SDS011;34310;51.904;4.256;2022-10-16T13:15:25;17.98;;;9.32;;
48516;SDS011;34310;51.904;4.256;2022-10-16T13:18:14;16.45;;;9.23;;
48516;SDS011;34310;51.904;4.256;2022-10-16T13:21:04;12.88;;;8.80;;
48516;SDS011;34310;51.904;4.256;2022-10-16T13:23:55;12.50;;;8.82;;
48516;SDS011;34310;51.904;4.256;2022-10-16T13:27:17;15.18;;;8.98;;
48516;SDS011;34310;51.904;4.256;2022-10-16T13:29:32;15.88;;;8.75;;
48516;SDS011;34310;51.904;4.256;2022-10-16T13:32:00;20.80;;;10.35;;
48516;SDS011;34310;51.904;4.256;2022-10-16T13:34:41;15.13;;;10.55;;
48516;SDS011;34310;51.904;4.256;2022-10-16T13:37:18;28.00;;;13.02;;
48516;SDS011;34310;51.904;4.256;2022-10-16T13:39:47;25.55;;;13.32;;
48516;SDS011;34310;51.904;4.256;2022-10-16T13:42:23;22.13;;;13.75;;
48516;SDS011;34310;51.904;4.256;2022-10-16T13:44:54;21.98;;;13.15;;
48516;SDS011;34310;51.904;4.256;2022-10-16T13:47:23;24.65;;;15.77;;
48516;SDS011;34310;51.904;4.256;2022-10-16T13:50:03;24.90;;;14.55;;
48516;SDS011;34310;51.904;4.256;2022-10-16T13:52:32;61.35;;;12.35;;
48516;SDS011;34310;51.904;4.256;2022-10-16T13:55:00;62.67;;;10.95;;
48516;SDS011;34310;51.904;4.256;2022-10-16T13:57:28;57.22;;;9.63;;
48516;SDS011;34310;51.904;4.256;2022-10-16T13:59:55;64.10;;;9.30;;
48516;SDS011;34310;51.904;4.256;2022-10-16T14:05:01;36.70;;;7.60;;
48516;SDS011;34310;51.904;4.256;2022-10-16T14:07:31;25.65;;;6.50;;
48516;SDS011;34310;51.904;4.256;2022-10-16T14:10:04;32.35;;;7.13;;
48516;SDS011;34310;51.904;4.256;2022-10-16T14:12:44;16.85;;;5.68;;
48516;SDS011;34310;51.904;4.256;2022-10-16T14:15:15;20.73;;;5.07;;
48516;SDS011;34310;51.904;4.256;2022-10-16T14:17:45;21.05;;;4.72;;
48516;SDS011;34310;51.904;4.256;2022-10-16T14:20:16;19.77;;;5.20;;
48516;SDS011;34310;51.904;4.256;2022-10-16T14:22:44;20.33;;;4.80;;
48516;SDS011;34310;51.904;4.256;2022-10-16T14:27:55;15.95;;;3.63;;
48516;SDS011;34310;51.904;4.256;2022-10-16T14:30:32;15.30;;;3.90;;
48516;SDS011;34310;51.904;4.256;2022-10-16T14:33:06;14.85;;;3.75;;
48516;SDS011;34310;51.904;4.256;2022-10-16T14:35:46;14.57;;;3.25;;
48516;SDS011;34310;51.904;4.256;2022-10-16T14:38:24;17.58;;;4.20;;
48516;SDS011;34310;51.904;4.256;2022-10-16T14:40:52;15.35;;;3.78;;
48516;SDS011;34310;51.904;4.256;2022-10-16T14:43:22;14.48;;;3.90;;
48516;SDS011;34310;51.904;4.256;2022-10-16T14:46:03;15.18;;;3.25;;
48516;SDS011;34310;51.904;4.256;2022-10-16T14:48:39;15.68;;;3.25;;
48516;SDS011;34310;51.904;4.256;2022-10-16T14:51:11;15.93;;;3.55;;
48516;SDS011;34310;51.904;4.256;2022-10-16T14:53:41;14.20;;;3.15;;
48516;SDS011;34310;51.904;4.256;2022-10-16T14:56:09;15.50;;;3.33;;
48516;SDS011;34310;51.904;4.256;2022-10-16T14:58:45;15.90;;;3.08;;
48516;SDS011;34310;51.904;4.256;2022-10-16T15:01:13;15.60;;;3.22;;
48516;SDS011;34310;51.904;4.256;2022-10-16T15:03:40;15.43;;;3.17;;
48516;SDS011;34310;51.904;4.256;2022-10-16T15:06:10;12.15;;;3.00;;
48516;SDS011;34310;51.904;4.256;2022-10-16T15:08:39;16.40;;;3.30;;
48516;SDS011;34310;51.904;4.256;2022-10-16T15:11:10;12.88;;;4.30;;
48516;SDS011;34310;51.904;4.256;2022-10-16T15:13:44;15.60;;;5.30;;
48516;SDS011;34310;51.904;4.256;2022-10-16T15:16:12;14.50;;;4.75;;
48516;SDS011;34310;51.904;4.256;2022-10-16T15:18:41;20.67;;;4.03;;
48516;SDS011;34310;51.904;4.256;2022-10-16T15:21:17;23.17;;;3.75;;
48516;SDS011;34310;51.904;4.256;2022-10-16T15:23:57;25.08;;;3.35;;
48516;SDS011;34310;51.904;4.256;2022-10-16T15:26:26;16.25;;;3.35;;
48516;SDS011;34310;51.904;4.256;2022-10-16T15:28:54;23.98;;;3.83;;
48516;SDS011;34310;51.904;4.256;2022-10-16T15:31:21;15.20;;;3.28;;
48516;SDS011;34310;51.904;4.256;2022-10-16T15:33:50;16.90;;;4.03;;
48516;SDS011;34310;51.904;4.256;2022-10-16T15:36:33;13.93;;;3.20;;
48516;SDS011;34310;51.904;4.256;2022-10-16T15:39:03;13.88;;;3.70;;
48516;SDS011;34310;51.904;4.256;2022-10-16T15:41:31;11.52;;;3.33;;
48516;SDS011;34310;51.904;4.256;2022-10-16T15:43:58;14.20;;;3.15;;
48516;SDS011;34310;51.904;4.256;2022-10-16T15:46:26;16.27;;;3.53;;
48516;SDS011;34310;51.904;4.256;2022-10-16T15:48:55;12.55;;;3.33;;
48516;SDS011;34310;51.904;4.256;2022-10-16T15:51:25;14.98;;;2.92;;
48516;SDS011;34310;51.904;4.256;2022-10-16T15:53:56;8.98;;;3.35;;
48516;SDS011;34310;51.904;4.256;2022-10-16T15:56:23;13.38;;;3.55;;
48516;SDS011;34310;51.904;4.256;2022-10-16T15:58:51;11.48;;;3.97;;
48516;SDS011;34310;51.904;4.256;2022-10-16T16:01:20;12.25;;;4.28;;
48516;SDS011;34310;51.904;4.256;2022-10-16T16:03:47;11.07;;;4.20;;
48516;SDS011;34310;51.904;4.256;2022-10-16T16:06:19;9.32;;;4.05;;
48516;SDS011;34310;51.904;4.256;2022-10-16T16:08:47;10.50;;;4.07;;
48516;SDS011;34310;51.904;4.256;2022-10-16T16:11:15;12.05;;;3.95;;
48516;SDS011;34310;51.904;4.256;2022-10-16T16:13:43;9.80;;;4.22;;
48516;SDS011;34310;51.904;4.256;2022-10-16T16:16:12;12.32;;;4.30;;
48516;SDS011;34310;51.904;4.256;2022-10-16T16:18:41;11.98;;;4.45;;
48516;SDS011;34310;51.904;4.256;2022-10-16T16:21:09;12.85;;;5.20;;
48516;SDS011;34310;51.904;4.256;2022-10-16T16:23:38;10.35;;;4.70;;
48516;SDS011;34310;51.904;4.256;2022-10-16T16:26:06;11.18;;;4.68;;
48516;SDS011;34310;51.904;4.256;2022-10-16T16:28:39;13.18;;;5.28;;
48516;SDS011;34310;51.904;4.256;2022-10-16T16:31:08;9.35;;;4.65;;
48516;SDS011;34310;51.904;4.256;2022-10-16T16:33:36;10.45;;;5.38;;
48516;SDS011;34310;51.904;4.256;2022-10-16T16:36:04;12.05;;;5.00;;
48516;SDS011;34310;51.904;4.256;2022-10-16T16:41:18;15.07;;;4.18;;
48516;SDS011;34310;51.904;4.256;2022-10-16T16:43:47;16.10;;;3.47;;
48516;SDS011;34310;51.904;4.256;2022-10-16T16:46:18;15.23;;;3.63;;
48516;SDS011;34310;51.904;4.256;2022-10-16T16:48:46;12.98;;;3.05;;
48516;SDS011;34310;51.904;4.256;2022-10-16T16:51:16;13.70;;;3.22;;
48516;SDS011;34310;51.904;4.256;2022-10-16T16:53:47;12.18;;;3.50;;
48516;SDS011;34310;51.904;4.256;2022-10-16T16:56:16;10.18;;;2.90;;
48516;SDS011;34310;51.904;4.256;2022-10-16T16:58:47;13.77;;;3.78;;
48516;SDS011;34310;51.904;4.256;2022-10-16T17:01:15;15.02;;;3.83;;